Bellaghy, United Kingdom
Current Conditions -  °F | °C
As of 3:20 AM on Monday 22 Dec 2014 (Local Time) from EGAA Reporting Station
Light Rain Light Rain  
Wind Chill: 52°   Ceiling: 900
Heat Index: 52°   Visibility: 6mi
Dew Point: 52°   Wind: 17mph
Humidity: 100%   Direction: 230°SW
Pressure: 29.71"   Gusts: NA
Location:  54.81°N, 6.52°W
Report Text: EGAA 220320Z AUTO 23015KT 9999 -RA BKN009/// BKN013/// OVC018/// 11/11 Q1006
Loading
Personal Weather Stations






























Interactive Weather Map New forecast layout! Learn more

10-Day Weather Forecast

Advertisements
Track Severe Weather on mobile